sensor_id;sensor_type;location;lat;lon;timestamp;P1;durP1;ratioP1;P2;durP2;ratioP2
73954;SDS011;62306;52.516;13.290;2022-12-19T00:00:34;51.03;;;18.90;;
73954;SDS011;62306;52.516;13.290;2022-12-19T00:03:02;46.58;;;16.80;;
73954;SDS011;62306;52.516;13.290;2022-12-19T00:05:29;49.80;;;18.27;;
73954;SDS011;62306;52.516;13.290;2022-12-19T00:07:56;49.53;;;17.08;;
73954;SDS011;62306;52.516;13.290;2022-12-19T00:10:24;51.83;;;18.42;;
73954;SDS011;62306;52.516;13.290;2022-12-19T00:12:50;44.85;;;17.27;;
73954;SDS011;62306;52.516;13.290;2022-12-19T00:15:17;46.30;;;18.10;;
73954;SDS011;62306;52.516;13.290;2022-12-19T00:17:44;50.50;;;18.08;;
73954;SDS011;62306;52.516;13.290;2022-12-19T00:20:13;46.75;;;16.77;;
73954;SDS011;62306;52.516;13.290;2022-12-19T00:22:40;46.35;;;16.85;;
73954;SDS011;62306;52.516;13.290;2022-12-19T00:25:07;46.35;;;16.27;;
73954;SDS011;62306;52.516;13.290;2022-12-19T00:27:34;51.13;;;18.25;;
73954;SDS011;62306;52.516;13.290;2022-12-19T00:30:02;42.22;;;15.90;;
73954;SDS011;62306;52.516;13.290;2022-12-19T00:32:29;44.60;;;16.55;;
73954;SDS011;62306;52.516;13.290;2022-12-19T00:34:56;46.65;;;17.35;;
73954;SDS011;62306;52.516;13.290;2022-12-19T00:37:24;41.60;;;17.45;;
73954;SDS011;62306;52.516;13.290;2022-12-19T00:39:52;44.97;;;16.63;;
73954;SDS011;62306;52.516;13.290;2022-12-19T00:42:19;45.97;;;16.77;;
73954;SDS011;62306;52.516;13.290;2022-12-19T00:44:46;45.08;;;17.63;;
73954;SDS011;62306;52.516;13.290;2022-12-19T00:47:13;42.00;;;15.93;;
73954;SDS011;62306;52.516;13.290;2022-12-19T00:49:40;42.65;;;15.98;;
73954;SDS011;62306;52.516;13.290;2022-12-19T00:52:07;42.85;;;15.82;;
73954;SDS011;62306;52.516;13.290;2022-12-19T00:54:35;42.92;;;16.60;;
73954;SDS011;62306;52.516;13.290;2022-12-19T00:57:02;46.60;;;16.92;;
73954;SDS011;62306;52.516;13.290;2022-12-19T00:59:29;43.72;;;16.77;;
73954;SDS011;62306;52.516;13.290;2022-12-19T01:01:56;45.30;;;16.30;;
73954;SDS011;62306;52.516;13.290;2022-12-19T01:04:23;39.75;;;15.50;;
73954;SDS011;62306;52.516;13.290;2022-12-19T01:06:50;50.45;;;16.95;;
73954;SDS011;62306;52.516;13.290;2022-12-19T01:09:17;37.88;;;15.30;;
73954;SDS011;62306;52.516;13.290;2022-12-19T01:11:49;41.13;;;15.02;;
73954;SDS011;62306;52.516;13.290;2022-12-19T01:14:33;39.58;;;16.45;;
73954;SDS011;62306;52.516;13.290;2022-12-19T01:17:00;43.97;;;15.70;;
73954;SDS011;62306;52.516;13.290;2022-12-19T01:19:28;43.35;;;15.88;;
73954;SDS011;62306;52.516;13.290;2022-12-19T01:21:55;42.85;;;16.27;;
73954;SDS011;62306;52.516;13.290;2022-12-19T01:24:22;44.58;;;15.52;;
73954;SDS011;62306;52.516;13.290;2022-12-19T01:26:50;45.13;;;15.93;;
73954;SDS011;62306;52.516;13.290;2022-12-19T01:29:17;38.83;;;15.85;;
73954;SDS011;62306;52.516;13.290;2022-12-19T01:31:44;37.83;;;14.93;;
73954;SDS011;62306;52.516;13.290;2022-12-19T01:34:11;46.17;;;16.55;;
73954;SDS011;62306;52.516;13.290;2022-12-19T01:36:38;35.13;;;12.13;;
73954;SDS011;62306;52.516;13.290;2022-12-19T01:39:05;40.28;;;15.50;;
73954;SDS011;62306;52.516;13.290;2022-12-19T01:41:33;34.40;;;13.48;;
73954;SDS011;62306;52.516;13.290;2022-12-19T01:44:02;46.97;;;16.40;;
73954;SDS011;62306;52.516;13.290;2022-12-19T01:46:31;41.65;;;15.43;;
73954;SDS011;62306;52.516;13.290;2022-12-19T01:49:01;36.72;;;14.93;;
73954;SDS011;62306;52.516;13.290;2022-12-19T01:51:30;36.05;;;13.40;;
73954;SDS011;62306;52.516;13.290;2022-12-19T01:56:31;40.25;;;14.60;;
73954;SDS011;62306;52.516;13.290;2022-12-19T01:59:03;41.10;;;14.98;;
73954;SDS011;62306;52.516;13.290;2022-12-19T02:04:01;31.60;;;12.77;;
73954;SDS011;62306;52.516;13.290;2022-12-19T02:06:29;38.65;;;15.60;;
73954;SDS011;62306;52.516;13.290;2022-12-19T02:08:59;41.63;;;14.95;;
73954;SDS011;62306;52.516;13.290;2022-12-19T02:11:26;38.83;;;14.02;;
73954;SDS011;62306;52.516;13.290;2022-12-19T02:13:53;35.70;;;14.73;;
73954;SDS011;62306;52.516;13.290;2022-12-19T02:16:25;37.15;;;15.48;;
73954;SDS011;62306;52.516;13.290;2022-12-19T02:19:03;37.53;;;13.77;;
73954;SDS011;62306;52.516;13.290;2022-12-19T02:21:50;41.58;;;16.55;;
73954;SDS011;62306;52.516;13.290;2022-12-19T02:27:53;36.58;;;14.82;;
73954;SDS011;62306;52.516;13.290;2022-12-19T02:30:41;43.53;;;15.43;;
73954;SDS011;62306;52.516;13.290;2022-12-19T02:33:18;40.97;;;14.77;;
73954;SDS011;62306;52.516;13.290;2022-12-19T02:38:19;38.33;;;14.57;;
73954;SDS011;62306;52.516;13.290;2022-12-19T02:40:54;40.72;;;15.00;;
73954;SDS011;62306;52.516;13.290;2022-12-19T02:43:25;42.38;;;15.10;;
73954;SDS011;62306;52.516;13.290;2022-12-19T02:45:57;39.00;;;14.75;;
73954;SDS011;62306;52.516;13.290;2022-12-19T02:48:26;46.38;;;15.90;;
73954;SDS011;62306;52.516;13.290;2022-12-19T02:50:54;42.05;;;15.73;;
73954;SDS011;62306;52.516;13.290;2022-12-19T02:53:21;41.80;;;15.90;;
73954;SDS011;62306;52.516;13.290;2022-12-19T02:55:49;43.30;;;16.08;;
73954;SDS011;62306;52.516;13.290;2022-12-19T02:58:42;45.72;;;17.77;;
73954;SDS011;62306;52.516;13.290;2022-12-19T03:01:22;49.67;;;17.23;;
73954;SDS011;62306;52.516;13.290;2022-12-19T03:04:06;40.10;;;15.57;;
73954;SDS011;62306;52.516;13.290;2022-12-19T03:06:41;45.90;;;16.13;;
73954;SDS011;62306;52.516;13.290;2022-12-19T03:09:14;43.13;;;15.35;;
73954;SDS011;62306;52.516;13.290;2022-12-19T03:11:50;46.65;;;16.60;;
73954;SDS011;62306;52.516;13.290;2022-12-19T03:14:25;44.70;;;17.40;;
73954;SDS011;62306;52.516;13.290;2022-12-19T03:16:56;51.38;;;17.90;;
73954;SDS011;62306;52.516;13.290;2022-12-19T03:19:28;45.38;;;17.08;;
73954;SDS011;62306;52.516;13.290;2022-12-19T03:21:57;46.47;;;17.40;;
73954;SDS011;62306;52.516;13.290;2022-12-19T03:24:24;44.95;;;16.85;;
73954;SDS011;62306;52.516;13.290;2022-12-19T03:26:52;51.25;;;19.60;;
73954;SDS011;62306;52.516;13.290;2022-12-19T03:29:24;45.13;;;16.88;;
73954;SDS011;62306;52.516;13.290;2022-12-19T03:31:57;42.45;;;15.20;;
73954;SDS011;62306;52.516;13.290;2022-12-19T03:34:28;50.97;;;18.85;;
73954;SDS011;62306;52.516;13.290;2022-12-19T03:37:00;49.03;;;18.38;;
73954;SDS011;62306;52.516;13.290;2022-12-19T03:39:29;49.08;;;17.85;;
73954;SDS011;62306;52.516;13.290;2022-12-19T03:41:58;49.60;;;18.52;;
73954;SDS011;62306;52.516;13.290;2022-12-19T03:44:43;41.28;;;14.88;;
73954;SDS011;62306;52.516;13.290;2022-12-19T03:47:14;51.70;;;18.33;;
73954;SDS011;62306;52.516;13.290;2022-12-19T03:49:44;48.60;;;17.98;;
73954;SDS011;62306;52.516;13.290;2022-12-19T03:52:15;53.60;;;19.92;;
73954;SDS011;62306;52.516;13.290;2022-12-19T03:54:49;49.15;;;18.55;;
73954;SDS011;62306;52.516;13.290;2022-12-19T03:57:23;46.92;;;17.20;;
73954;SDS011;62306;52.516;13.290;2022-12-19T03:59:58;50.17;;;19.95;;
73954;SDS011;62306;52.516;13.290;2022-12-19T04:02:31;48.03;;;18.52;;
73954;SDS011;62306;52.516;13.290;2022-12-19T04:07:31;49.40;;;17.85;;
73954;SDS011;62306;52.516;13.290;2022-12-19T04:09:59;53.85;;;19.67;;
73954;SDS011;62306;52.516;13.290;2022-12-19T04:12:30;45.60;;;17.08;;
73954;SDS011;62306;52.516;13.290;2022-12-19T04:15:02;49.60;;;18.42;;
73954;SDS011;62306;52.516;13.290;2022-12-19T04:17:31;47.65;;;20.90;;
73954;SDS011;62306;52.516;13.290;2022-12-19T04:20:05;49.65;;;17.58;;
73954;SDS011;62306;52.516;13.290;2022-12-19T04:22:34;50.97;;;19.58;;
73954;SDS011;62306;52.516;13.290;2022-12-19T04:25:05;52.72;;;17.92;;
73954;SDS011;62306;52.516;13.290;2022-12-19T04:27:36;56.72;;;20.65;;
73954;SDS011;62306;52.516;13.290;2022-12-19T04:30:07;52.22;;;19.50;;
73954;SDS011;62306;52.516;13.290;2022-12-19T04:32:36;50.03;;;19.10;;
73954;SDS011;62306;52.516;13.290;2022-12-19T04:35:04;51.20;;;19.58;;
73954;SDS011;62306;52.516;13.290;2022-12-19T04:37:31;50.90;;;20.65;;
73954;SDS011;62306;52.516;13.290;2022-12-19T04:39:58;52.42;;;18.50;;
73954;SDS011;62306;52.516;13.290;2022-12-19T04:42:25;52.42;;;19.65;;
73954;SDS011;62306;52.516;13.290;2022-12-19T04:44:52;46.90;;;18.48;;
73954;SDS011;62306;52.516;13.290;2022-12-19T04:47:19;52.90;;;19.45;;
73954;SDS011;62306;52.516;13.290;2022-12-19T04:49:48;54.30;;;20.02;;
73954;SDS011;62306;52.516;13.290;2022-12-19T04:52:15;52.42;;;20.30;;
73954;SDS011;62306;52.516;13.290;2022-12-19T04:54:42;51.38;;;20.17;;
73954;SDS011;62306;52.516;13.290;2022-12-19T04:57:09;50.70;;;18.98;;
73954;SDS011;62306;52.516;13.290;2022-12-19T04:59:36;55.33;;;19.70;;
73954;SDS011;62306;52.516;13.290;2022-12-19T05:02:03;49.55;;;18.90;;
73954;SDS011;62306;52.516;13.290;2022-12-19T05:04:30;50.20;;;19.55;;
73954;SDS011;62306;52.516;13.290;2022-12-19T05:06:59;51.60;;;19.25;;
73954;SDS011;62306;52.516;13.290;2022-12-19T05:09:26;51.22;;;19.70;;
73954;SDS011;62306;52.516;13.290;2022-12-19T05:11:53;50.72;;;19.17;;
73954;SDS011;62306;52.516;13.290;2022-12-19T05:14:20;53.47;;;19.58;;
73954;SDS011;62306;52.516;13.290;2022-12-19T05:16:47;53.65;;;20.05;;
73954;SDS011;62306;52.516;13.290;2022-12-19T05:19:14;49.45;;;19.67;;
73954;SDS011;62306;52.516;13.290;2022-12-19T05:21:41;50.65;;;18.58;;
73954;SDS011;62306;52.516;13.290;2022-12-19T05:24:09;41.72;;;16.48;;
73954;SDS011;62306;52.516;13.290;2022-12-19T05:26:36;48.53;;;19.02;;
73954;SDS011;62306;52.516;13.290;2022-12-19T05:29:03;51.15;;;19.70;;
73954;SDS011;62306;52.516;13.290;2022-12-19T05:31:30;54.47;;;19.40;;
73954;SDS011;62306;52.516;13.290;2022-12-19T05:33:57;54.80;;;19.20;;
73954;SDS011;62306;52.516;13.290;2022-12-19T05:36:24;48.78;;;18.50;;
73954;SDS011;62306;52.516;13.290;2022-12-19T05:38:51;46.95;;;17.98;;
73954;SDS011;62306;52.516;13.290;2022-12-19T05:41:20;45.13;;;18.08;;
73954;SDS011;62306;52.516;13.290;2022-12-19T05:43:48;46.20;;;17.90;;
73954;SDS011;62306;52.516;13.290;2022-12-19T05:46:17;47.17;;;19.13;;
73954;SDS011;62306;52.516;13.290;2022-12-19T05:48:44;50.05;;;19.48;;
73954;SDS011;62306;52.516;13.290;2022-12-19T05:51:11;50.15;;;18.77;;
73954;SDS011;62306;52.516;13.290;2022-12-19T05:53:39;56.03;;;20.30;;
73954;SDS011;62306;52.516;13.290;2022-12-19T05:56:07;46.70;;;18.55;;
73954;SDS011;62306;52.516;13.290;2022-12-19T05:58:37;50.47;;;19.83;;
73954;SDS011;62306;52.516;13.290;2022-12-19T06:01:06;53.85;;;19.85;;
73954;SDS011;62306;52.516;13.290;2022-12-19T06:03:34;54.25;;;17.25;;
73954;SDS011;62306;52.516;13.290;2022-12-19T06:06:02;50.72;;;19.80;;
73954;SDS011;62306;52.516;13.290;2022-12-19T06:08:30;54.17;;;21.52;;
73954;SDS011;62306;52.516;13.290;2022-12-19T06:10:57;46.63;;;19.13;;
73954;SDS011;62306;52.516;13.290;2022-12-19T06:13:25;56.20;;;20.17;;
73954;SDS011;62306;52.516;13.290;2022-12-19T06:15:57;52.55;;;19.50;;
73954;SDS011;62306;52.516;13.290;2022-12-19T06:18:24;52.33;;;19.15;;
73954;SDS011;62306;52.516;13.290;2022-12-19T06:20:56;53.55;;;19.55;;
73954;SDS011;62306;52.516;13.290;2022-12-19T06:23:23;48.03;;;18.40;;
73954;SDS011;62306;52.516;13.290;2022-12-19T06:25:50;52.00;;;18.63;;
73954;SDS011;62306;52.516;13.290;2022-12-19T06:28:17;50.40;;;18.55;;
73954;SDS011;62306;52.516;13.290;2022-12-19T06:30:44;47.78;;;19.10;;
73954;SDS011;62306;52.516;13.290;2022-12-19T06:33:13;46.70;;;17.73;;
73954;SDS011;62306;52.516;13.290;2022-12-19T06:35:40;46.28;;;18.35;;
73954;SDS011;62306;52.516;13.290;2022-12-19T06:38:08;44.45;;;18.23;;
73954;SDS011;62306;52.516;13.290;2022-12-19T06:40:38;52.90;;;19.08;;
73954;SDS011;62306;52.516;13.290;2022-12-19T06:43:24;57.65;;;22.55;;
73954;SDS011;62306;52.516;13.290;2022-12-19T06:45:51;41.92;;;14.27;;
73954;SDS011;62306;52.516;13.290;2022-12-19T06:48:20;46.92;;;18.05;;
73954;SDS011;62306;52.516;13.290;2022-12-19T06:50:47;42.17;;;17.70;;
73954;SDS011;62306;52.516;13.290;2022-12-19T06:53:14;50.55;;;19.52;;
73954;SDS011;62306;52.516;13.290;2022-12-19T06:55:41;44.65;;;18.13;;
73954;SDS011;62306;52.516;13.290;2022-12-19T06:58:08;45.70;;;17.80;;
73954;SDS011;62306;52.516;13.290;2022-12-19T07:00:35;41.90;;;18.08;;
73954;SDS011;62306;52.516;13.290;2022-12-19T07:03:02;63.20;;;19.55;;
73954;SDS011;62306;52.516;13.290;2022-12-19T07:05:34;44.80;;;18.90;;
73954;SDS011;62306;52.516;13.290;2022-12-19T07:08:01;48.08;;;18.88;;
73954;SDS011;62306;52.516;13.290;2022-12-19T07:10:29;48.72;;;18.98;;
73954;SDS011;62306;52.516;13.290;2022-12-19T07:12:56;48.13;;;18.50;;
73954;SDS011;62306;52.516;13.290;2022-12-19T07:15:23;49.88;;;18.05;;
73954;SDS011;62306;52.516;13.290;2022-12-19T07:17:50;44.08;;;18.27;;
73954;SDS011;62306;52.516;13.290;2022-12-19T07:20:18;46.65;;;19.60;;
73954;SDS011;62306;52.516;13.290;2022-12-19T07:22:47;43.55;;;17.98;;
73954;SDS011;62306;52.516;13.290;2022-12-19T07:25:14;46.45;;;18.15;;
73954;SDS011;62306;52.516;13.290;2022-12-19T07:27:42;49.92;;;17.65;;
73954;SDS011;62306;52.516;13.290;2022-12-19T07:30:10;47.83;;;17.42;;
73954;SDS011;62306;52.516;13.290;2022-12-19T07:32:37;45.28;;;17.35;;
73954;SDS011;62306;52.516;13.290;2022-12-19T07:35:05;46.35;;;17.98;;
73954;SDS011;62306;52.516;13.290;2022-12-19T07:37:32;47.83;;;17.83;;
73954;SDS011;62306;52.516;13.290;2022-12-19T07:40:01;43.88;;;17.08;;
73954;SDS011;62306;52.516;13.290;2022-12-19T07:42:28;52.42;;;20.23;;
73954;SDS011;62306;52.516;13.290;2022-12-19T07:44:55;48.60;;;18.95;;
73954;SDS011;62306;52.516;13.290;2022-12-19T07:47:22;42.03;;;17.13;;
73954;SDS011;62306;52.516;13.290;2022-12-19T07:49:51;43.65;;;17.67;;
73954;SDS011;62306;52.516;13.290;2022-12-19T07:52:18;51.20;;;17.35;;
73954;SDS011;62306;52.516;13.290;2022-12-19T07:54:46;52.72;;;18.23;;
73954;SDS011;62306;52.516;13.290;2022-12-19T07:57:14;44.25;;;16.25;;
73954;SDS011;62306;52.516;13.290;2022-12-19T07:59:42;45.53;;;17.50;;
73954;SDS011;62306;52.516;13.290;2022-12-19T08:02:09;45.60;;;17.55;;
73954;SDS011;62306;52.516;13.290;2022-12-19T08:04:36;44.80;;;17.08;;
73954;SDS011;62306;52.516;13.290;2022-12-19T08:07:03;46.35;;;17.17;;
73954;SDS011;62306;52.516;13.290;2022-12-19T08:09:30;47.55;;;18.30;;
73954;SDS011;62306;52.516;13.290;2022-12-19T08:11:57;51.72;;;17.98;;
73954;SDS011;62306;52.516;13.290;2022-12-19T08:14:26;41.38;;;16.38;;
73954;SDS011;62306;52.516;13.290;2022-12-19T08:16:53;51.90;;;19.08;;
73954;SDS011;62306;52.516;13.290;2022-12-19T08:19:20;47.28;;;19.00;;
73954;SDS011;62306;52.516;13.290;2022-12-19T08:21:50;55.20;;;23.65;;
73954;SDS011;62306;52.516;13.290;2022-12-19T08:24:18;42.40;;;15.95;;
73954;SDS011;62306;52.516;13.290;2022-12-19T08:26:45;45.47;;;16.35;;
73954;SDS011;62306;52.516;13.290;2022-12-19T08:29:13;43.30;;;17.88;;
73954;SDS011;62306;52.516;13.290;2022-12-19T08:31:49;43.75;;;17.35;;
73954;SDS011;62306;52.516;13.290;2022-12-19T08:34:16;47.03;;;17.48;;
73954;SDS011;62306;52.516;13.290;2022-12-19T08:36:43;50.72;;;17.50;;
73954;SDS011;62306;52.516;13.290;2022-12-19T08:39:10;39.00;;;16.92;;
73954;SDS011;62306;52.516;13.290;2022-12-19T08:41:37;45.80;;;16.58;;
73954;SDS011;62306;52.516;13.290;2022-12-19T08:44:05;45.70;;;19.05;;
73954;SDS011;62306;52.516;13.290;2022-12-19T08:46:32;37.03;;;16.20;;
73954;SDS011;62306;52.516;13.290;2022-12-19T08:49:00;49.15;;;17.92;;
73954;SDS011;62306;52.516;13.290;2022-12-19T08:51:27;47.17;;;16.60;;
73954;SDS011;62306;52.516;13.290;2022-12-19T08:53:54;76.25;;;28.80;;
73954;SDS011;62306;52.516;13.290;2022-12-19T08:56:21;47.83;;;18.42;;
73954;SDS011;62306;52.516;13.290;2022-12-19T08:58:49;41.97;;;16.23;;
73954;SDS011;62306;52.516;13.290;2022-12-19T09:01:17;39.75;;;16.23;;
73954;SDS011;62306;52.516;13.290;2022-12-19T09:03:48;38.45;;;15.73;;
73954;SDS011;62306;52.516;13.290;2022-12-19T09:06:16;43.15;;;16.77;;
73954;SDS011;62306;52.516;13.290;2022-12-19T09:08:44;46.08;;;17.85;;
73954;SDS011;62306;52.516;13.290;2022-12-19T09:11:12;40.38;;;15.68;;
73954;SDS011;62306;52.516;13.290;2022-12-19T09:13:40;49.35;;;18.40;;
73954;SDS011;62306;52.516;13.290;2022-12-19T09:16:10;45.47;;;19.70;;
73954;SDS011;62306;52.516;13.290;2022-12-19T09:18:38;46.78;;;17.30;;
73954;SDS011;62306;52.516;13.290;2022-12-19T09:21:06;45.45;;;17.33;;
73954;SDS011;62306;52.516;13.290;2022-12-19T09:23:34;48.47;;;17.17;;
73954;SDS011;62306;52.516;13.290;2022-12-19T09:26:02;44.28;;;17.75;;
73954;SDS011;62306;52.516;13.290;2022-12-19T09:28:31;48.15;;;19.58;;
73954;SDS011;62306;52.516;13.290;2022-12-19T09:31:00;45.25;;;19.50;;
73954;SDS011;62306;52.516;13.290;2022-12-19T09:33:29;42.55;;;18.45;;
73954;SDS011;62306;52.516;13.290;2022-12-19T09:35:58;44.67;;;18.33;;
73954;SDS011;62306;52.516;13.290;2022-12-19T09:38:26;43.33;;;16.98;;
73954;SDS011;62306;52.516;13.290;2022-12-19T09:41:00;45.38;;;17.30;;
73954;SDS011;62306;52.516;13.290;2022-12-19T09:43:42;43.65;;;16.75;;
73954;SDS011;62306;52.516;13.290;2022-12-19T09:46:24;42.75;;;16.88;;
73954;SDS011;62306;52.516;13.290;2022-12-19T09:51:26;48.08;;;18.67;;
73954;SDS011;62306;52.516;13.290;2022-12-19T09:54:01;43.88;;;15.63;;
73954;SDS011;62306;52.516;13.290;2022-12-19T09:56:35;43.20;;;16.25;;
73954;SDS011;62306;52.516;13.290;2022-12-19T09:59:07;48.25;;;17.42;;
73954;SDS011;62306;52.516;13.290;2022-12-19T10:01:43;43.42;;;17.73;;
73954;SDS011;62306;52.516;13.290;2022-12-19T10:04:17;47.95;;;18.98;;
73954;SDS011;62306;52.516;13.290;2022-12-19T10:06:45;40.10;;;17.00;;
73954;SDS011;62306;52.516;13.290;2022-12-19T10:09:13;47.08;;;14.73;;
73954;SDS011;62306;52.516;13.290;2022-12-19T10:11:50;41.38;;;17.20;;
73954;SDS011;62306;52.516;13.290;2022-12-19T10:14:30;39.63;;;13.50;;
73954;SDS011;62306;52.516;13.290;2022-12-19T10:17:09;47.75;;;19.38;;
73954;SDS011;62306;52.516;13.290;2022-12-19T10:19:44;43.72;;;17.40;;
73954;SDS011;62306;52.516;13.290;2022-12-19T10:22:23;45.22;;;17.50;;
73954;SDS011;62306;52.516;13.290;2022-12-19T10:25:05;46.10;;;17.98;;
73954;SDS011;62306;52.516;13.290;2022-12-19T10:27:56;41.15;;;15.60;;
73954;SDS011;62306;52.516;13.290;2022-12-19T10:30:28;42.83;;;15.38;;
73954;SDS011;62306;52.516;13.290;2022-12-19T10:33:01;43.97;;;17.35;;
73954;SDS011;62306;52.516;13.290;2022-12-19T10:35:39;62.70;;;17.92;;
73954;SDS011;62306;52.516;13.290;2022-12-19T10:38:13;51.53;;;19.10;;
73954;SDS011;62306;52.516;13.290;2022-12-19T10:40:48;44.50;;;17.63;;
73954;SDS011;62306;52.516;13.290;2022-12-19T10:43:23;43.33;;;16.52;;
73954;SDS011;62306;52.516;13.290;2022-12-19T10:46:01;35.97;;;14.75;;
73954;SDS011;62306;52.516;13.290;2022-12-19T10:48:38;50.88;;;19.45;;
73954;SDS011;62306;52.516;13.290;2022-12-19T10:51:09;42.58;;;17.25;;
73954;SDS011;62306;52.516;13.290;2022-12-19T10:53:38;49.08;;;17.15;;
73954;SDS011;62306;52.516;13.290;2022-12-19T10:56:11;45.17;;;17.60;;
73954;SDS011;62306;52.516;13.290;2022-12-19T10:58:48;45.05;;;16.58;;
73954;SDS011;62306;52.516;13.290;2022-12-19T11:01:22;44.95;;;16.17;;
73954;SDS011;62306;52.516;13.290;2022-12-19T11:03:52;48.60;;;17.17;;
73954;SDS011;62306;52.516;13.290;2022-12-19T11:06:41;43.97;;;16.83;;
73954;SDS011;62306;52.516;13.290;2022-12-19T11:09:18;52.17;;;18.95;;
73954;SDS011;62306;52.516;13.290;2022-12-19T11:11:58;48.38;;;19.08;;
73954;SDS011;62306;52.516;13.290;2022-12-19T11:14:33;46.65;;;16.25;;
73954;SDS011;62306;52.516;13.290;2022-12-19T11:17:02;45.28;;;16.60;;
73954;SDS011;62306;52.516;13.290;2022-12-19T11:19:31;41.65;;;16.58;;
73954;SDS011;62306;52.516;13.290;2022-12-19T11:22:00;44.92;;;16.45;;
73954;SDS011;62306;52.516;13.290;2022-12-19T11:24:33;40.05;;;15.80;;
73954;SDS011;62306;52.516;13.290;2022-12-19T11:27:08;45.03;;;16.20;;
73954;SDS011;62306;52.516;13.290;2022-12-19T11:29:57;41.20;;;17.33;;
73954;SDS011;62306;52.516;13.290;2022-12-19T11:32:28;43.63;;;17.40;;
73954;SDS011;62306;52.516;13.290;2022-12-19T11:34:59;47.38;;;18.17;;
73954;SDS011;62306;52.516;13.290;2022-12-19T11:37:31;44.58;;;18.30;;
73954;SDS011;62306;52.516;13.290;2022-12-19T11:40:05;46.35;;;17.17;;
73954;SDS011;62306;52.516;13.290;2022-12-19T11:42:43;42.15;;;17.17;;
73954;SDS011;62306;52.516;13.290;2022-12-19T11:45:17;38.38;;;16.80;;
73954;SDS011;62306;52.516;13.290;2022-12-19T11:47:54;41.38;;;17.67;;
73954;SDS011;62306;52.516;13.290;2022-12-19T11:50:28;42.83;;;16.65;;
73954;SDS011;62306;52.516;13.290;2022-12-19T11:53:01;41.08;;;16.73;;
73954;SDS011;62306;52.516;13.290;2022-12-19T11:55:38;40.67;;;16.77;;
73954;SDS011;62306;52.516;13.290;2022-12-19T11:58:09;49.35;;;16.15;;
73954;SDS011;62306;52.516;13.290;2022-12-19T12:00:39;41.55;;;17.02;;
73954;SDS011;62306;52.516;13.290;2022-12-19T12:03:19;43.42;;;18.38;;
73954;SDS011;62306;52.516;13.290;2022-12-19T12:06:10;37.88;;;16.15;;
73954;SDS011;62306;52.516;13.290;2022-12-19T12:11:32;41.95;;;16.98;;
73954;SDS011;62306;52.516;13.290;2022-12-19T12:16:56;45.33;;;16.48;;
73954;SDS011;62306;52.516;13.290;2022-12-19T12:19:47;41.55;;;17.35;;
73954;SDS011;62306;52.516;13.290;2022-12-19T12:22:27;39.75;;;16.35;;
73954;SDS011;62306;52.516;13.290;2022-12-19T12:25:09;41.88;;;17.92;;
73954;SDS011;62306;52.516;13.290;2022-12-19T12:27:52;45.58;;;19.08;;
73954;SDS011;62306;52.516;13.290;2022-12-19T12:30:27;44.95;;;18.67;;
73954;SDS011;62306;52.516;13.290;2022-12-19T12:33:08;43.80;;;18.17;;
73954;SDS011;62306;52.516;13.290;2022-12-19T12:35:44;50.60;;;18.00;;
73954;SDS011;62306;52.516;13.290;2022-12-19T12:38:28;44.17;;;18.43;;
73954;SDS011;62306;52.516;13.290;2022-12-19T12:43:48;45.05;;;18.33;;
73954;SDS011;62306;52.516;13.290;2022-12-19T12:46:25;47.75;;;16.33;;
73954;SDS011;62306;52.516;13.290;2022-12-19T12:48:59;48.55;;;19.13;;
73954;SDS011;62306;52.516;13.290;2022-12-19T12:51:28;54.25;;;21.00;;
73954;SDS011;62306;52.516;13.290;2022-12-19T12:53:58;48.65;;;20.40;;
73954;SDS011;62306;52.516;13.290;2022-12-19T12:56:29;45.88;;;21.13;;
73954;SDS011;62306;52.516;13.290;2022-12-19T12:59:17;51.80;;;22.27;;
73954;SDS011;62306;52.516;13.290;2022-12-19T13:01:48;50.78;;;20.45;;
73954;SDS011;62306;52.516;13.290;2022-12-19T13:04:25;49.03;;;21.65;;
73954;SDS011;62306;52.516;13.290;2022-12-19T13:07:09;52.60;;;21.65;;
73954;SDS011;62306;52.516;13.290;2022-12-19T13:09:45;60.88;;;23.58;;
73954;SDS011;62306;52.516;13.290;2022-12-19T13:12:19;56.28;;;23.33;;
73954;SDS011;62306;52.516;13.290;2022-12-19T13:18:28;53.28;;;23.02;;
73954;SDS011;62306;52.516;13.290;2022-12-19T13:21:00;49.13;;;21.67;;
73954;SDS011;62306;52.516;13.290;2022-12-19T13:23:33;52.55;;;22.48;;
73954;SDS011;62306;52.516;13.290;2022-12-19T13:29:32;58.50;;;21.80;;
73954;SDS011;62306;52.516;13.290;2022-12-19T13:32:18;46.25;;;20.33;;
73954;SDS011;62306;52.516;13.290;2022-12-19T13:34:55;43.45;;;18.50;;
73954;SDS011;62306;52.516;13.290;2022-12-19T13:37:28;54.63;;;20.83;;
73954;SDS011;62306;52.516;13.290;2022-12-19T13:40:01;45.65;;;19.65;;
73954;SDS011;62306;52.516;13.290;2022-12-19T13:42:38;52.17;;;19.73;;
73954;SDS011;62306;52.516;13.290;2022-12-19T13:45:33;58.22;;;21.15;;
73954;SDS011;62306;52.516;13.290;2022-12-19T13:48:03;50.80;;;19.67;;
73954;SDS011;62306;52.516;13.290;2022-12-19T13:50:35;49.33;;;20.27;;
73954;SDS011;62306;52.516;13.290;2022-12-19T13:53:10;57.38;;;21.00;;
73954;SDS011;62306;52.516;13.290;2022-12-19T13:55:40;53.25;;;20.52;;
73954;SDS011;62306;52.516;13.290;2022-12-19T13:58:13;56.63;;;21.90;;
73954;SDS011;62306;52.516;13.290;2022-12-19T14:00:47;63.08;;;22.20;;
73954;SDS011;62306;52.516;13.290;2022-12-19T14:03:15;56.45;;;20.40;;
73954;SDS011;62306;52.516;13.290;2022-12-19T14:05:46;53.72;;;21.50;;
73954;SDS011;62306;52.516;13.290;2022-12-19T14:08:17;62.15;;;21.52;;
73954;SDS011;62306;52.516;13.290;2022-12-19T14:10:47;54.10;;;21.17;;
73954;SDS011;62306;52.516;13.290;2022-12-19T14:13:16;48.47;;;19.98;;
73954;SDS011;62306;52.516;13.290;2022-12-19T14:16:02;54.90;;;21.15;;
73954;SDS011;62306;52.516;13.290;2022-12-19T14:18:30;56.38;;;20.98;;
73954;SDS011;62306;52.516;13.290;2022-12-19T14:21:12;61.70;;;21.23;;
73954;SDS011;62306;52.516;13.290;2022-12-19T14:23:42;57.92;;;22.67;;
73954;SDS011;62306;52.516;13.290;2022-12-19T14:26:11;60.17;;;23.55;;
73954;SDS011;62306;52.516;13.290;2022-12-19T14:28:46;59.42;;;23.40;;
73954;SDS011;62306;52.516;13.290;2022-12-19T14:31:17;59.47;;;21.60;;
73954;SDS011;62306;52.516;13.290;2022-12-19T14:33:45;52.13;;;22.13;;
73954;SDS011;62306;52.516;13.290;2022-12-19T14:36:18;57.63;;;22.42;;
73954;SDS011;62306;52.516;13.290;2022-12-19T14:38:48;63.22;;;24.42;;
73954;SDS011;62306;52.516;13.290;2022-12-19T14:41:16;52.45;;;21.10;;
73954;SDS011;62306;52.516;13.290;2022-12-19T14:44:11;51.75;;;21.52;;
73954;SDS011;62306;52.516;13.290;2022-12-19T14:46:39;57.03;;;22.80;;
73954;SDS011;62306;52.516;13.290;2022-12-19T14:49:21;59.78;;;22.73;;
73954;SDS011;62306;52.516;13.290;2022-12-19T14:51:49;55.25;;;23.13;;
73954;SDS011;62306;52.516;13.290;2022-12-19T14:54:19;59.17;;;22.52;;
73954;SDS011;62306;52.516;13.290;2022-12-19T14:56:48;62.47;;;23.60;;
73954;SDS011;62306;52.516;13.290;2022-12-19T14:59:19;60.15;;;22.63;;
73954;SDS011;62306;52.516;13.290;2022-12-19T15:02:03;55.30;;;22.83;;